createdAt,value
2019-04-26T00:02:09.877Z,33.60
2019-04-26T00:04:38.540Z,30.70
2019-04-26T00:07:06.951Z,35.15
2019-04-26T00:09:38.256Z,33.75
2019-04-26T00:12:08.070Z,45.98
2019-04-26T00:14:37.985Z,29.32
2019-04-26T00:20:23.236Z,36.80
2019-04-26T00:26:08.109Z,36.13
2019-04-26T00:28:36.298Z,37.20
2019-04-26T00:34:21.672Z,27.25
2019-04-26T00:40:07.116Z,35.40
2019-04-26T00:42:35.505Z,39.73
2019-04-26T00:48:21.383Z,32.50
2019-04-26T00:54:05.701Z,26.20
2019-04-26T00:56:34.360Z,28.97
2019-04-26T01:02:20.859Z,41.80
2019-04-26T01:08:05.623Z,31.90
2019-04-26T01:10:33.818Z,23.90
2019-04-26T01:13:01.931Z,30.17
2019-04-26T01:18:46.807Z,26.27
2019-04-26T01:24:32.994Z,32.70
2019-04-26T01:29:55.277Z,33.57
2019-04-26T01:35:40.091Z,40.57
2019-04-26T01:41:37.973Z,26.47
2019-04-26T01:47:24.139Z,32.53
2019-04-26T01:53:08.543Z,32.70
2019-04-26T01:58:52.679Z,23.50
2019-04-26T02:04:39.452Z,30.63
2019-04-26T02:07:07.841Z,31.80
2019-04-26T02:12:51.983Z,35.13
2019-04-26T02:18:36.885Z,34.90
2019-04-26T02:24:24.821Z,29.43
2019-04-26T02:30:09.549Z,24.47
2019-04-26T02:35:54.809Z,36.73
2019-04-26T02:41:39.740Z,36.90
2019-04-26T02:44:09.600Z,27.70
2019-04-26T02:49:56.413Z,36.60
2019-04-26T02:52:27.878Z,38.03
2019-04-26T02:58:12.398Z,44.50
2019-04-26T03:03:56.947Z,51.33
2019-04-26T03:09:44.350Z,53.33
2019-04-26T03:15:32.057Z,69.10
2019-04-26T03:21:32.699Z,62.97
2019-04-26T03:24:02.403Z,58.67
2019-04-26T03:29:48.580Z,69.97
2019-04-26T03:35:41.277Z,77.53
2019-04-26T03:38:10.670Z,57.90
2019-04-26T03:43:56.738Z,51.73
2019-04-26T03:49:30.390Z,53.67
2019-04-26T03:55:16.482Z,51.43
2019-04-26T04:01:04.476Z,49.57
2019-04-26T04:03:39.313Z,42.80
2019-04-26T04:09:23.639Z,44.03
2019-04-26T04:15:10.010Z,52.20
2019-04-26T04:17:45.069Z,58.05
2019-04-26T04:20:14.430Z,47.78
2019-04-26T04:25:59.792Z,49.55
2019-04-26T04:28:29.694Z,49.48
2019-04-26T04:30:59.522Z,50.33
2019-04-26T04:33:29.202Z,50.28
2019-04-26T04:35:59.088Z,39.18
2019-04-26T04:38:30.563Z,42.62
2019-04-26T04:41:01.915Z,51.05
2019-04-26T04:43:33.303Z,54.58
2019-04-26T04:46:02.946Z,61.95
2019-04-26T04:48:34.359Z,44.88
2019-04-26T04:51:02.342Z,53.65
2019-04-26T04:53:30.401Z,51.90
2019-04-26T04:56:00.849Z,60.90
2019-04-26T04:58:30.649Z,52.98
2019-04-26T05:01:02.056Z,45.80
2019-04-26T05:03:33.583Z,66.95
2019-04-26T05:06:07.524Z,66.07
2019-04-26T05:08:37.619Z,54.10
2019-04-26T05:11:07.873Z,54.42
2019-04-26T05:13:37.741Z,57.03
2019-04-26T05:16:09.194Z,60.80
2019-04-26T05:18:39.009Z,57.73
2019-04-26T05:21:08.918Z,62.48
2019-04-26T05:23:38.799Z,58.23
2019-04-26T05:26:08.261Z,53.80
2019-04-26T05:28:39.798Z,48.73
2019-04-26T05:31:09.234Z,53.02
2019-04-26T05:33:39.656Z,59.73
2019-04-26T05:36:11.080Z,49.05
2019-04-26T05:38:38.986Z,51.77
2019-04-26T05:41:08.853Z,55.38
2019-04-26T05:43:40.375Z,56.65
2019-04-26T05:46:11.741Z,52.58
2019-04-26T05:48:43.187Z,48.68
2019-04-26T05:51:14.554Z,43.25
2019-04-26T05:53:45.881Z,60.12
2019-04-26T05:56:17.271Z,43.78
2019-04-26T05:58:47.194Z,50.85
2019-04-26T06:01:18.635Z,58.68
2019-04-26T06:03:50.861Z,53.02
2019-04-26T06:06:22.529Z,68.70
2019-04-26T06:08:53.927Z,62.85
2019-04-26T06:11:25.326Z,60.85
2019-04-26T06:13:57.751Z,60.98
2019-04-26T06:16:29.233Z,52.30
2019-04-26T06:19:01.678Z,60.50
2019-04-26T06:21:31.731Z,79.90
2019-04-26T06:24:03.077Z,54.25
2019-04-26T06:26:32.753Z,70.03
2019-04-26T06:29:03.308Z,46.83
2019-04-26T06:31:33.235Z,58.60
2019-04-26T06:34:03.167Z,58.92
2019-04-26T06:36:34.530Z,77.05
2019-04-26T06:39:09.293Z,48.48
2019-04-26T06:41:41.811Z,109.42
2019-04-26T06:44:13.221Z,67.58
2019-04-26T06:46:47.372Z,82.20
2019-04-26T06:49:17.732Z,69.05
2019-04-26T06:51:47.545Z,80.92
2019-04-26T06:54:18.790Z,56.37
2019-04-26T06:56:50.113Z,64.27
2019-04-26T06:59:19.919Z,53.52
2019-04-26T07:01:49.661Z,65.83
2019-04-26T07:04:19.801Z,54.95
2019-04-26T07:06:49.561Z,59.95
2019-04-26T07:09:18.909Z,62.50
2019-04-26T07:11:50.391Z,62.05
2019-04-26T07:14:20.169Z,54.75
2019-04-26T07:16:49.881Z,63.80
2019-04-26T07:19:19.690Z,49.23
2019-04-26T07:21:51.043Z,47.83
2019-04-26T07:24:22.389Z,39.65
2019-04-26T07:26:52.258Z,47.78
2019-04-26T07:29:25.042Z,50.28
2019-04-26T07:31:55.209Z,48.25
2019-04-26T07:34:26.675Z,35.23
2019-04-26T07:36:56.499Z,38.23
2019-04-26T07:39:29.073Z,39.73
2019-04-26T07:41:58.021Z,45.30
2019-04-26T07:44:29.409Z,46.33
2019-04-26T07:46:59.309Z,47.73
2019-04-26T07:49:31.069Z,38.67
2019-04-26T07:52:02.904Z,44.08
2019-04-26T07:54:32.821Z,36.88
2019-04-26T07:57:03.209Z,42.15
2019-04-26T07:59:33.213Z,37.85
2019-04-26T08:02:05.091Z,37.23
2019-04-26T08:04:35.766Z,36.23
2019-04-26T08:07:06.334Z,33.95
2019-04-26T08:09:36.927Z,30.88
2019-04-26T08:12:07.947Z,32.20
2019-04-26T08:14:40.813Z,38.13
2019-04-26T08:17:12.552Z,39.23
2019-04-26T08:19:42.433Z,29.98
2019-04-26T08:22:20.433Z,37.30
2019-04-26T08:24:44.165Z,29.55
2019-04-26T08:27:22.544Z,41.85
2019-04-26T08:29:45.489Z,33.23
2019-04-26T08:32:16.806Z,35.00
2019-04-26T08:34:46.738Z,37.60
2019-04-26T08:37:19.302Z,30.82
2019-04-26T08:39:51.691Z,38.33
2019-04-26T08:42:23.861Z,29.57
2019-04-26T08:44:52.701Z,35.35
2019-04-26T08:47:26.129Z,36.58
2019-04-26T08:49:54.629Z,32.40
2019-04-26T08:52:25.869Z,36.58
2019-04-26T08:54:56.291Z,30.02
2019-04-26T08:57:26.311Z,39.83
2019-04-26T08:59:56.241Z,31.55
2019-04-26T09:02:27.687Z,37.53
2019-04-26T09:04:59.001Z,40.23
2019-04-26T09:07:30.712Z,27.20
2019-04-26T09:10:01.551Z,30.35
2019-04-26T09:12:33.304Z,31.45
2019-04-26T09:15:03.356Z,29.98
2019-04-26T09:17:33.760Z,30.52
2019-04-26T09:20:07.181Z,38.60
2019-04-26T09:22:34.281Z,42.23
2019-04-26T09:25:04.309Z,31.35
2019-04-26T09:27:34.530Z,33.80
2019-04-26T09:30:06.320Z,36.75
2019-04-26T09:32:36.808Z,28.75
2019-04-26T09:35:06.219Z,31.82
2019-04-26T09:37:34.489Z,27.25
2019-04-26T09:40:10.198Z,36.77
2019-04-26T09:42:39.470Z,35.78
2019-04-26T09:45:08.993Z,29.48
2019-04-26T09:47:39.022Z,27.22
2019-04-26T09:50:11.355Z,26.73
2019-04-26T09:52:41.948Z,19.55
2019-04-26T09:55:10.358Z,24.98
2019-04-26T09:57:38.616Z,25.30
2019-04-26T10:00:10.305Z,24.70
2019-04-26T10:02:40.398Z,23.60
2019-04-26T10:05:12.046Z,17.65
2019-04-26T10:07:39.388Z,21.15
2019-04-26T10:10:22.140Z,18.12
2019-04-26T10:12:41.051Z,26.52
2019-04-26T10:15:11.207Z,24.20
2019-04-26T10:17:39.584Z,18.90
2019-04-26T10:20:07.895Z,19.23
2019-04-26T10:22:37.853Z,18.67
2019-04-26T10:25:08.079Z,16.42
2019-04-26T10:27:40.842Z,17.30
2019-04-26T10:30:09.451Z,12.33
2019-04-26T10:32:38.055Z,19.10
2019-04-26T10:35:06.621Z,19.23
2019-04-26T10:37:39.759Z,15.43
2019-04-26T10:40:06.467Z,14.55
2019-04-26T10:42:34.743Z,18.10
2019-04-26T10:45:03.661Z,17.67
2019-04-26T10:47:34.357Z,20.52
2019-04-26T10:50:02.150Z,18.27
2019-04-26T10:52:30.308Z,13.20
2019-04-26T10:55:00.103Z,15.08
2019-04-26T10:57:30.114Z,19.15
2019-04-26T11:00:01.089Z,18.62
2019-04-26T11:02:29.429Z,16.07
2019-04-26T11:04:57.962Z,21.95
2019-04-26T11:07:26.449Z,10.48
2019-04-26T11:09:55.155Z,13.88
2019-04-26T11:12:23.554Z,18.82
2019-04-26T11:14:53.338Z,14.68
2019-04-26T11:17:21.918Z,38.02
2019-04-26T11:19:50.395Z,16.45
2019-04-26T11:22:28.588Z,18.45
2019-04-26T11:24:50.100Z,14.55
2019-04-26T11:27:18.734Z,11.85
2019-04-26T11:29:53.579Z,11.57
2019-04-26T11:32:16.979Z,13.60
2019-04-26T11:34:45.521Z,15.50
2019-04-26T11:37:17.792Z,9.23
2019-04-26T11:39:43.770Z,8.60
2019-04-26T11:42:13.224Z,12.50
2019-04-26T11:44:44.377Z,12.58
2019-04-26T11:47:11.538Z,9.98
2019-04-26T11:49:41.589Z,16.90
2019-04-26T11:52:10.069Z,12.15
2019-04-26T11:54:38.438Z,14.58
2019-04-26T11:57:08.248Z,13.88
2019-04-26T11:59:36.794Z,12.80
2019-04-26T12:02:05.109Z,12.05
2019-04-26T12:04:35.066Z,15.23
2019-04-26T12:07:05.001Z,13.80
2019-04-26T12:09:34.953Z,14.13
2019-04-26T12:12:04.816Z,11.12
2019-04-26T12:14:34.364Z,17.02
2019-04-26T12:17:03.998Z,12.58
2019-04-26T12:19:32.646Z,10.35
2019-04-26T12:22:04.187Z,11.53
2019-04-26T12:24:34.395Z,11.97
2019-04-26T12:27:01.027Z,9.93
2019-04-26T12:29:29.518Z,10.72
2019-04-26T12:35:26.021Z,6.42
2019-04-26T12:37:55.727Z,13.10
2019-04-26T12:40:24.127Z,9.43
2019-04-26T12:42:53.750Z,11.70
2019-04-26T12:45:23.759Z,15.98
2019-04-26T12:47:53.690Z,19.12
2019-04-26T12:50:21.981Z,19.23
2019-04-26T12:56:18.671Z,15.65
2019-04-26T13:02:11.135Z,10.15
2019-04-26T13:07:55.659Z,16.95
2019-04-26T13:13:42.379Z,17.20
2019-04-26T13:19:16.126Z,24.80
2019-04-26T13:25:01.478Z,34.67
2019-04-26T13:30:45.883Z,37.05
2019-04-26T13:36:30.664Z,35.28
2019-04-26T13:42:17.402Z,35.55
2019-04-26T13:48:02.374Z,38.13
2019-04-26T13:53:46.868Z,23.10
2019-04-26T13:59:32.623Z,25.57
2019-04-26T14:05:17.501Z,22.50
2019-04-26T14:11:01.991Z,26.65
2019-04-26T14:13:30.332Z,27.45
2019-04-26T14:15:58.601Z,30.92
2019-04-26T14:21:33.192Z,29.87
2019-04-26T14:27:19.022Z,28.87
2019-04-26T14:33:03.539Z,27.98
2019-04-26T14:35:31.920Z,26.73
2019-04-26T14:38:01.618Z,41.37
2019-04-26T14:40:30.190Z,37.05
2019-04-26T14:43:06.706Z,29.52
2019-04-26T14:45:28.559Z,27.55
2019-04-26T14:48:00.253Z,34.08
2019-04-26T14:53:43.009Z,37.83
2019-04-26T14:59:29.695Z,34.08
2019-04-26T15:05:16.661Z,23.47
2019-04-26T15:07:51.083Z,24.52
2019-04-26T15:13:21.204Z,34.88
2019-04-26T15:15:52.422Z,42.70
2019-04-26T15:18:22.388Z,24.20
2019-04-26T15:20:53.273Z,30.20
2019-04-26T15:23:23.876Z,28.85
2019-04-26T15:25:52.828Z,23.15
2019-04-26T15:28:22.123Z,31.30
2019-04-26T15:30:52.596Z,24.35
2019-04-26T15:33:22.020Z,35.48
2019-04-26T15:35:52.025Z,30.60
2019-04-26T15:38:22.089Z,24.57
2019-04-26T15:40:51.971Z,29.50
2019-04-26T15:43:20.014Z,30.62
2019-04-26T15:45:49.938Z,33.35
2019-04-26T15:48:23.074Z,34.48
2019-04-26T15:50:54.738Z,24.98
2019-04-26T15:53:23.920Z,26.97
2019-04-26T15:55:52.559Z,25.75
2019-04-26T15:58:20.934Z,33.45
2019-04-26T16:00:49.216Z,19.85
2019-04-26T16:03:18.849Z,28.00
2019-04-26T16:05:50.595Z,22.40
2019-04-26T16:08:18.869Z,26.17
2019-04-26T16:10:47.114Z,27.70
2019-04-26T16:13:18.719Z,26.52
2019-04-26T16:15:48.823Z,33.75
2019-04-26T16:18:17.363Z,24.82
2019-04-26T16:20:45.782Z,32.88
2019-04-26T16:23:14.111Z,23.47
2019-04-26T16:25:42.912Z,22.17
2019-04-26T16:28:12.972Z,21.82
2019-04-26T16:30:44.452Z,25.77
2019-04-26T16:33:14.377Z,27.90
2019-04-26T16:35:42.811Z,23.35
2019-04-26T16:38:18.808Z,30.62
2019-04-26T16:40:47.566Z,19.37
2019-04-26T16:46:29.054Z,24.70
2019-04-26T16:49:02.350Z,23.52
2019-04-26T16:54:34.326Z,33.45
2019-04-26T17:00:18.320Z,30.55
2019-04-26T17:06:06.747Z,40.73
2019-04-26T17:11:49.424Z,29.52
2019-04-26T17:17:34.315Z,32.03
2019-04-26T17:20:06.704Z,25.57
2019-04-26T17:25:38.074Z,41.15
2019-04-26T17:28:06.496Z,31.68
2019-04-26T17:30:41.085Z,37.42
2019-04-26T17:33:04.877Z,22.40
2019-04-26T17:35:36.623Z,20.92
2019-04-26T17:38:05.080Z,27.65
2019-04-26T17:43:55.967Z,29.32
2019-04-26T17:49:38.090Z,32.45
2019-04-26T17:52:05.299Z,30.57
2019-04-26T17:54:46.270Z,29.85
2019-04-26T17:57:04.207Z,31.60
2019-04-26T18:03:01.756Z,33.45
2019-04-26T18:08:54.567Z,27.17
2019-04-26T18:14:35.234Z,30.70
2019-04-26T18:20:09.426Z,29.30
2019-04-26T18:22:40.953Z,25.25
2019-04-26T18:28:25.453Z,27.93
2019-04-26T18:30:53.673Z,23.40
2019-04-26T18:33:25.871Z,31.15
2019-04-26T18:39:09.201Z,33.00
2019-04-26T18:41:39.109Z,21.50
2019-04-26T18:47:28.347Z,29.10
2019-04-26T18:53:13.938Z,34.75
2019-04-26T18:58:58.864Z,25.35
2019-04-26T19:04:47.934Z,28.00
2019-04-26T19:10:34.062Z,30.92
2019-04-26T19:13:03.214Z,47.58
2019-04-26T19:15:39.445Z,42.73
2019-04-26T19:18:05.499Z,28.27
2019-04-26T19:20:37.267Z,27.65
2019-04-26T19:23:09.943Z,38.38
2019-04-26T19:25:42.821Z,45.50
2019-04-26T19:31:19.203Z,37.73
2019-04-26T19:37:04.481Z,38.40
2019-04-26T19:42:51.423Z,41.00
2019-04-26T19:45:22.403Z,40.98
2019-04-26T19:47:52.440Z,34.08
2019-04-26T19:50:22.460Z,29.98
2019-04-26T19:52:52.389Z,25.37
2019-04-26T19:55:24.010Z,28.05
2019-04-26T19:57:53.874Z,31.30
2019-04-26T20:00:22.237Z,36.20
2019-04-26T20:02:51.942Z,36.23
2019-04-26T20:05:22.362Z,37.23
2019-04-26T20:07:51.844Z,31.20
2019-04-26T20:10:26.494Z,30.43
2019-04-26T20:12:55.011Z,24.95
2019-04-26T20:15:26.737Z,42.60
2019-04-26T20:21:12.587Z,38.70
2019-04-26T20:23:45.798Z,35.60
2019-04-26T20:26:09.098Z,35.95
2019-04-26T20:28:38.674Z,39.40
2019-04-26T20:34:14.380Z,38.42
2019-04-26T20:40:20.199Z,29.50
2019-04-26T20:46:12.468Z,34.60
2019-04-26T20:48:30.171Z,34.95
2019-04-26T20:54:02.431Z,24.43
2019-04-26T20:59:52.629Z,32.85
2019-04-26T21:05:22.963Z,30.97
2019-04-26T21:11:07.818Z,33.25
2019-04-26T21:16:51.993Z,28.15
2019-04-26T21:22:36.468Z,30.02
2019-04-26T21:25:07.529Z,37.28
2019-04-26T21:27:37.537Z,31.37
2019-04-26T21:33:23.968Z,32.20
2019-04-26T21:35:57.598Z,28.47
2019-04-26T21:38:29.548Z,27.87
2019-04-26T21:41:04.335Z,31.30
2019-04-26T21:43:29.481Z,24.50
2019-04-26T21:46:07.733Z,34.78
2019-04-26T21:48:27.929Z,36.75
2019-04-26T21:50:56.305Z,27.48
2019-04-26T21:53:25.038Z,28.47
2019-04-26T21:59:09.121Z,27.98
2019-04-26T22:04:53.231Z,24.87
2019-04-26T22:10:43.724Z,31.75
2019-04-26T22:16:34.215Z,26.23
2019-04-26T22:22:17.353Z,35.00
2019-04-26T22:24:47.321Z,23.02
2019-04-26T22:27:17.490Z,30.10
2019-04-26T22:33:03.054Z,24.30
2019-04-26T22:35:31.633Z,31.83
2019-04-26T22:37:59.934Z,26.42
2019-04-26T22:43:49.553Z,37.88
2019-04-26T22:46:18.709Z,21.33
2019-04-26T22:48:54.664Z,28.27
2019-04-26T22:51:19.410Z,24.73
2019-04-26T22:53:47.986Z,26.35
2019-04-26T22:59:33.796Z,29.45
2019-04-26T23:05:19.293Z,31.33
2019-04-26T23:07:47.598Z,22.53
2019-04-26T23:10:15.976Z,34.00
2019-04-26T23:12:45.924Z,31.48
2019-04-26T23:18:46.182Z,20.77
2019-04-26T23:24:30.305Z,39.50
2019-04-26T23:26:58.612Z,39.53
2019-04-26T23:32:43.471Z,48.20
2019-04-26T23:38:26.790Z,39.05
2019-04-26T23:44:23.765Z,37.23
2019-04-26T23:46:54.935Z,38.42
2019-04-26T23:52:38.416Z,49.25
2019-04-26T23:58:23.151Z,36.55
